Aérodrome :
LOGIN :

S'inscrire | Disclaimer

   EN    FR    IT 

 










Légende :    VFR   VFR Marginal   IFR   IFR Intensif   IFR Très Intensif
Visi : 
Plafond : 
>= 8 km
>= 3000ft
5 à 8 km
1000 à 3000 ft
1500m à 5 km
500 à 1000 ft
800 à 1500m
200 à 500 ft
< 800m
< 200 ft
Symboles :   Orages  Brouillard  Fortes neiges  Fortes précipitations  Vent > 20 kt
SIGMETs :   Divers  Orages  Givrage  Turbulence  Onde Orograph.  Cendres Volcan.






- Altitude de l'aérodrome : 913 ft


LFSX - Luxeuil

DERNIER METAR :
  • 122200Z AUTO 14008KT 9000 3700 -SNRA BKN014/// OVC020/// ///TCU 01/00 Q0992

METARs EXPIRÉS :
  • 122130Z AUTO 13007KT 9999 -RA SCT020 BKN025 OVC032 02/00 Q0992
  • 122100Z AUTO 16007KT 140V200 9999 -RA BKN029 OVC036 03/M01 Q0993
  • 122030Z AUTO 12006KT 9999 SCT032 BKN043 BKN052 02/M01 Q0994
  • 122000Z AUTO 12008KT CAVOK 02/M01 Q0994
  • 121930Z AUTO 13006KT CAVOK 01/M01 Q0995

TAF TAF LFSX
Valide du 12 à 21h jusqu'au 13 à 21h UTC


122000Z 1221/1321 17007KT CAVOK
FM122200 23015KT 4900 -RA BKN014
TEMPO 1223/1309 24016G26KT 3500 RA BKN008
TEMPO 1309/1321 25018G33KT 3000 SHRA FEW011 BKN020TCU



MET'MAP, la Météo Aéronautique d'un coup d'oeil ! - Copyright ORBIFLY Décembre 2007 - Disclaimer

ORBIFLY MET'MAP TEAM :

Programmation & Développement : Alexandra Zaïnal
Sur une idée originale de : Baudouin d'Aumeries
Assistance à la programmation : Marc-Olivier Méhu
Soutien technique & logistique : Manuel Goepfert

Contact : metmap@orbifly.com




SOURCES & CREDITS :

   NOAA